Etusivu
METAR-TAF:

METAR-TAF

Lentoasemat :

Carlsbad, New Mexico, Yhdysvallat

Leveyspiiri: 32-20-15N, Pituuspiiri: 104-15-48W, korkeus merenpinnasta: 1004 m

Tämänhetkinen sää

Tämä raportti tehtiin 56 minuuttia sitten, kello 07.53 UTC
Tuuli 10 kn etelästä/kaakosta
Lämpötila 19°C
Kosteus 49%
Ilmanpaine 1012 hPa
Näkyvyys: 16.1 km
selkeää

METAR: KCNM 220753Z AUTO 15010KT 10SM CLR 19/08 A2988 RMK AO2 SLP062 T01940083

Aika: 02:49 (08:49 UTC)

Sääennuste

Tämä raportti tehtiin 3 tuntia ja 22 minuuttia sitten, kello 05.27 UTC
Ennuste voimassa 22. päivästä klo 06 UTC - 23. päivään klo 06 UTC
Tuuli 8 kn etelästä/lounaasta
Näkyvyys: 10 km
Hajonneita pilviä 25000 ft:n korkeudessa

TAF: KCNM 220527Z 2206/2306 20008KT P6SM BKN250

Säähavainnot ja -ennusteet yli 4000 lentoasemalta (METAR- ja TAF-raportit).

Käytössä olevat sääasemat on merkitty karttaan keltaisilla ja punaisilla pisteillä.

Aseta hiiri pisteen päälle nähdäksesi sääaseman nimen.

Klikkaa sitten nähdäksesi säähavainnot ja -ennusteet.

Kartan vaihtaminen: klikkaa mustalla rastilla varustettuja vihreitä pisteitä, niin voit zoomata sisään; viivalla varustettua vihreää pistettä, niin voit zoomata ulos tai vihreitä nuolia, niin pääset viereisille kartoille.


METAR-TAF: